sensor_id;sensor_type;location;lat;lon;timestamp;temperature;humidity
12060;DHT22;6091;51.432;6.880;2023-08-21T00:01:01;29.30;46.50
12060;DHT22;6091;51.432;6.880;2023-08-21T00:03:29;29.30;46.50
12060;DHT22;6091;51.432;6.880;2023-08-21T00:05:56;29.30;46.50
12060;DHT22;6091;51.432;6.880;2023-08-21T00:08:24;29.30;46.50
12060;DHT22;6091;51.432;6.880;2023-08-21T00:10:51;29.30;46.50
12060;DHT22;6091;51.432;6.880;2023-08-21T00:13:18;29.30;46.60
12060;DHT22;6091;51.432;6.880;2023-08-21T00:15:45;29.30;46.60
12060;DHT22;6091;51.432;6.880;2023-08-21T00:18:13;29.30;46.70
12060;DHT22;6091;51.432;6.880;2023-08-21T00:20:41;29.30;46.80
12060;DHT22;6091;51.432;6.880;2023-08-21T00:23:09;29.30;46.70
12060;DHT22;6091;51.432;6.880;2023-08-21T00:25:36;29.30;46.70
12060;DHT22;6091;51.432;6.880;2023-08-21T00:28:04;29.20;46.70
12060;DHT22;6091;51.432;6.880;2023-08-21T00:30:32;29.20;46.60
12060;DHT22;6091;51.432;6.880;2023-08-21T00:33:02;29.20;46.70
12060;DHT22;6091;51.432;6.880;2023-08-21T00:35:29;29.30;46.80
12060;DHT22;6091;51.432;6.880;2023-08-21T00:37:56;29.30;46.70
12060;DHT22;6091;51.432;6.880;2023-08-21T00:40:24;29.30;46.60
12060;DHT22;6091;51.432;6.880;2023-08-21T00:42:51;29.30;46.60
12060;DHT22;6091;51.432;6.880;2023-08-21T00:45:18;29.20;46.60
12060;DHT22;6091;51.432;6.880;2023-08-21T00:47:45;29.20;46.60
12060;DHT22;6091;51.432;6.880;2023-08-21T00:50:12;29.20;46.60
12060;DHT22;6091;51.432;6.880;2023-08-21T00:52:43;29.20;46.60
12060;DHT22;6091;51.432;6.880;2023-08-21T00:55:13;29.20;46.60
12060;DHT22;6091;51.432;6.880;2023-08-21T00:57:41;29.20;46.60
12060;DHT22;6091;51.432;6.880;2023-08-21T01:00:09;29.20;46.70
12060;DHT22;6091;51.432;6.880;2023-08-21T01:02:37;29.20;46.70
12060;DHT22;6091;51.432;6.880;2023-08-21T01:05:07;29.10;46.70
12060;DHT22;6091;51.432;6.880;2023-08-21T01:07:43;29.10;46.70
12060;DHT22;6091;51.432;6.880;2023-08-21T01:10:22;29.10;46.80
12060;DHT22;6091;51.432;6.880;2023-08-21T01:13:06;29.10;46.80
12060;DHT22;6091;51.432;6.880;2023-08-21T01:15:55;29.10;46.80
12060;DHT22;6091;51.432;6.880;2023-08-21T01:18:26;29.10;46.70
12060;DHT22;6091;51.432;6.880;2023-08-21T01:20:55;29.10;46.70
12060;DHT22;6091;51.432;6.880;2023-08-21T01:23:34;29.10;46.80
12060;DHT22;6091;51.432;6.880;2023-08-21T01:26:03;29.10;46.80
12060;DHT22;6091;51.432;6.880;2023-08-21T01:28:34;29.00;46.70
12060;DHT22;6091;51.432;6.880;2023-08-21T01:33:55;29.10;46.70
12060;DHT22;6091;51.432;6.880;2023-08-21T01:36:26;29.00;46.70
12060;DHT22;6091;51.432;6.880;2023-08-21T01:38:55;29.00;46.70
12060;DHT22;6091;51.432;6.880;2023-08-21T01:41:25;29.00;46.80
12060;DHT22;6091;51.432;6.880;2023-08-21T01:43:52;29.00;46.80
12060;DHT22;6091;51.432;6.880;2023-08-21T01:46:20;29.00;47.40
12060;DHT22;6091;51.432;6.880;2023-08-21T01:48:47;29.00;46.90
12060;DHT22;6091;51.432;6.880;2023-08-21T01:51:14;29.00;47.00
12060;DHT22;6091;51.432;6.880;2023-08-21T01:53:41;28.90;46.90
12060;DHT22;6091;51.432;6.880;2023-08-21T01:56:09;28.90;46.90
12060;DHT22;6091;51.432;6.880;2023-08-21T01:58:36;28.90;46.80
12060;DHT22;6091;51.432;6.880;2023-08-21T02:01:03;28.90;46.70
12060;DHT22;6091;51.432;6.880;2023-08-21T02:03:31;28.90;47.00
12060;DHT22;6091;51.432;6.880;2023-08-21T02:05:59;28.90;46.80
12060;DHT22;6091;51.432;6.880;2023-08-21T02:08:33;28.90;46.80
12060;DHT22;6091;51.432;6.880;2023-08-21T02:11:01;28.90;46.80
12060;DHT22;6091;51.432;6.880;2023-08-21T02:13:28;28.90;46.80
12060;DHT22;6091;51.432;6.880;2023-08-21T02:15:55;28.90;46.80
12060;DHT22;6091;51.432;6.880;2023-08-21T02:18:22;28.90;46.70
12060;DHT22;6091;51.432;6.880;2023-08-21T02:20:49;28.90;46.70
12060;DHT22;6091;51.432;6.880;2023-08-21T02:23:17;28.90;46.70
12060;DHT22;6091;51.432;6.880;2023-08-21T02:25:44;28.90;46.80
12060;DHT22;6091;51.432;6.880;2023-08-21T02:28:11;28.90;46.80
12060;DHT22;6091;51.432;6.880;2023-08-21T02:30:41;28.80;46.80
12060;DHT22;6091;51.432;6.880;2023-08-21T02:33:09;28.90;46.90
12060;DHT22;6091;51.432;6.880;2023-08-21T02:35:36;28.90;46.90
12060;DHT22;6091;51.432;6.880;2023-08-21T02:38:03;28.80;46.90
12060;DHT22;6091;51.432;6.880;2023-08-21T02:40:30;28.80;46.80
12060;DHT22;6091;51.432;6.880;2023-08-21T02:42:58;28.80;46.80
12060;DHT22;6091;51.432;6.880;2023-08-21T02:45:25;28.80;46.90
12060;DHT22;6091;51.432;6.880;2023-08-21T02:47:52;28.80;47.00
12060;DHT22;6091;51.432;6.880;2023-08-21T02:50:19;28.80;46.90
12060;DHT22;6091;51.432;6.880;2023-08-21T02:52:50;28.80;46.80
12060;DHT22;6091;51.432;6.880;2023-08-21T02:55:17;28.80;47.10
12060;DHT22;6091;51.432;6.880;2023-08-21T02:57:46;28.80;47.50
12060;DHT22;6091;51.432;6.880;2023-08-21T03:00:13;28.80;47.00
12060;DHT22;6091;51.432;6.880;2023-08-21T03:02:40;28.80;47.00
12060;DHT22;6091;51.432;6.880;2023-08-21T03:05:11;28.80;46.90
12060;DHT22;6091;51.432;6.880;2023-08-21T03:07:40;28.80;46.90
12060;DHT22;6091;51.432;6.880;2023-08-21T03:10:08;28.80;47.00
12060;DHT22;6091;51.432;6.880;2023-08-21T03:12:35;28.80;47.10
12060;DHT22;6091;51.432;6.880;2023-08-21T03:15:04;28.80;47.00
12060;DHT22;6091;51.432;6.880;2023-08-21T03:17:31;28.80;47.10
12060;DHT22;6091;51.432;6.880;2023-08-21T03:19:59;28.80;47.00
12060;DHT22;6091;51.432;6.880;2023-08-21T03:22:26;28.80;47.00
12060;DHT22;6091;51.432;6.880;2023-08-21T03:24:53;28.80;47.10
12060;DHT22;6091;51.432;6.880;2023-08-21T03:27:21;28.80;47.00
12060;DHT22;6091;51.432;6.880;2023-08-21T03:29:48;28.80;47.00
12060;DHT22;6091;51.432;6.880;2023-08-21T03:32:17;28.80;47.00
12060;DHT22;6091;51.432;6.880;2023-08-21T03:34:46;28.80;47.10
12060;DHT22;6091;51.432;6.880;2023-08-21T03:37:16;28.70;46.90
12060;DHT22;6091;51.432;6.880;2023-08-21T03:39:43;28.70;47.00
12060;DHT22;6091;51.432;6.880;2023-08-21T03:42:10;28.80;47.00
12060;DHT22;6091;51.432;6.880;2023-08-21T03:44:39;28.70;47.00
12060;DHT22;6091;51.432;6.880;2023-08-21T03:47:06;28.70;46.90
12060;DHT22;6091;51.432;6.880;2023-08-21T03:49:35;28.70;46.90
12060;DHT22;6091;51.432;6.880;2023-08-21T03:52:03;28.70;47.00
12060;DHT22;6091;51.432;6.880;2023-08-21T03:54:30;28.70;46.90
12060;DHT22;6091;51.432;6.880;2023-08-21T03:56:57;28.70;47.00
12060;DHT22;6091;51.432;6.880;2023-08-21T03:59:24;28.70;46.90
12060;DHT22;6091;51.432;6.880;2023-08-21T04:01:54;28.70;47.10
12060;DHT22;6091;51.432;6.880;2023-08-21T04:04:21;28.70;47.10
12060;DHT22;6091;51.432;6.880;2023-08-21T04:06:48;28.70;47.00
12060;DHT22;6091;51.432;6.880;2023-08-21T04:09:16;28.70;47.10
12060;DHT22;6091;51.432;6.880;2023-08-21T04:11:43;28.70;47.10
12060;DHT22;6091;51.432;6.880;2023-08-21T04:14:10;28.70;47.00
12060;DHT22;6091;51.432;6.880;2023-08-21T04:16:37;28.70;47.00
12060;DHT22;6091;51.432;6.880;2023-08-21T04:19:05;28.70;47.10
12060;DHT22;6091;51.432;6.880;2023-08-21T04:21:33;28.70;47.00
12060;DHT22;6091;51.432;6.880;2023-08-21T04:24:00;28.70;47.00
12060;DHT22;6091;51.432;6.880;2023-08-21T04:26:27;28.60;47.00
12060;DHT22;6091;51.432;6.880;2023-08-21T04:28:54;28.70;47.00
12060;DHT22;6091;51.432;6.880;2023-08-21T04:31:21;28.60;47.00
12060;DHT22;6091;51.432;6.880;2023-08-21T04:33:50;28.70;47.00
12060;DHT22;6091;51.432;6.880;2023-08-21T04:36:18;28.60;47.00
12060;DHT22;6091;51.432;6.880;2023-08-21T04:38:45;28.60;47.70
12060;DHT22;6091;51.432;6.880;2023-08-21T04:41:15;28.60;47.00
12060;DHT22;6091;51.432;6.880;2023-08-21T04:43:42;28.60;47.20
12060;DHT22;6091;51.432;6.880;2023-08-21T04:46:09;28.60;47.10
12060;DHT22;6091;51.432;6.880;2023-08-21T04:48:36;28.60;47.10
12060;DHT22;6091;51.432;6.880;2023-08-21T04:51:04;28.60;47.20
12060;DHT22;6091;51.432;6.880;2023-08-21T04:53:31;28.60;47.10
12060;DHT22;6091;51.432;6.880;2023-08-21T04:56:01;28.60;47.20
12060;DHT22;6091;51.432;6.880;2023-08-21T04:58:28;28.60;47.30
12060;DHT22;6091;51.432;6.880;2023-08-21T05:00:55;28.60;47.20
12060;DHT22;6091;51.432;6.880;2023-08-21T05:03:22;28.70;47.30
12060;DHT22;6091;51.432;6.880;2023-08-21T05:05:56;28.70;47.30
12060;DHT22;6091;51.432;6.880;2023-08-21T05:08:24;28.70;47.20
12060;DHT22;6091;51.432;6.880;2023-08-21T05:10:58;28.60;47.20
12060;DHT22;6091;51.432;6.880;2023-08-21T05:13:26;28.70;47.20
12060;DHT22;6091;51.432;6.880;2023-08-21T05:15:55;28.70;47.10
12060;DHT22;6091;51.432;6.880;2023-08-21T05:18:24;28.60;47.10
12060;DHT22;6091;51.432;6.880;2023-08-21T05:20:56;28.60;47.10
12060;DHT22;6091;51.432;6.880;2023-08-21T05:23:23;28.60;47.10
12060;DHT22;6091;51.432;6.880;2023-08-21T05:25:50;28.60;47.20
12060;DHT22;6091;51.432;6.880;2023-08-21T05:28:17;28.60;47.10
12060;DHT22;6091;51.432;6.880;2023-08-21T05:30:47;28.70;47.30
12060;DHT22;6091;51.432;6.880;2023-08-21T05:33:15;28.60;47.30
12060;DHT22;6091;51.432;6.880;2023-08-21T05:35:42;28.70;47.30
12060;DHT22;6091;51.432;6.880;2023-08-21T05:38:09;28.60;47.20
12060;DHT22;6091;51.432;6.880;2023-08-21T05:40:36;28.60;47.20
12060;DHT22;6091;51.432;6.880;2023-08-21T05:43:03;28.60;47.10
12060;DHT22;6091;51.432;6.880;2023-08-21T05:45:30;28.60;47.20
12060;DHT22;6091;51.432;6.880;2023-08-21T05:47:58;28.60;47.10
12060;DHT22;6091;51.432;6.880;2023-08-21T05:50:25;28.70;47.20
12060;DHT22;6091;51.432;6.880;2023-08-21T05:52:52;28.60;47.10
12060;DHT22;6091;51.432;6.880;2023-08-21T05:55:21;28.70;47.10
12060;DHT22;6091;51.432;6.880;2023-08-21T05:57:48;28.70;47.00
12060;DHT22;6091;51.432;6.880;2023-08-21T06:00:15;28.70;47.20
12060;DHT22;6091;51.432;6.880;2023-08-21T06:02:43;28.70;46.90
12060;DHT22;6091;51.432;6.880;2023-08-21T06:05:10;28.70;47.00
12060;DHT22;6091;51.432;6.880;2023-08-21T06:07:37;28.60;46.80
12060;DHT22;6091;51.432;6.880;2023-08-21T06:10:05;28.60;46.80
12060;DHT22;6091;51.432;6.880;2023-08-21T06:12:32;28.60;46.80
12060;DHT22;6091;51.432;6.880;2023-08-21T06:15:00;28.60;47.00
12060;DHT22;6091;51.432;6.880;2023-08-21T06:17:27;28.60;47.00
12060;DHT22;6091;51.432;6.880;2023-08-21T06:19:55;28.60;47.30
12060;DHT22;6091;51.432;6.880;2023-08-21T06:22:22;28.60;47.10
12060;DHT22;6091;51.432;6.880;2023-08-21T06:24:49;28.70;47.10
12060;DHT22;6091;51.432;6.880;2023-08-21T06:27:17;28.60;47.30
12060;DHT22;6091;51.432;6.880;2023-08-21T06:29:44;28.70;47.40
12060;DHT22;6091;51.432;6.880;2023-08-21T06:32:11;28.70;47.40
12060;DHT22;6091;51.432;6.880;2023-08-21T06:34:38;28.70;47.30
12060;DHT22;6091;51.432;6.880;2023-08-21T06:37:05;28.80;47.50
12060;DHT22;6091;51.432;6.880;2023-08-21T06:39:32;28.80;47.60
12060;DHT22;6091;51.432;6.880;2023-08-21T06:42:01;28.80;47.50
12060;DHT22;6091;51.432;6.880;2023-08-21T06:44:28;28.80;47.60
12060;DHT22;6091;51.432;6.880;2023-08-21T06:46:55;28.90;47.60
12060;DHT22;6091;51.432;6.880;2023-08-21T06:49:22;28.90;47.50
12060;DHT22;6091;51.432;6.880;2023-08-21T06:51:50;28.90;47.60
12060;DHT22;6091;51.432;6.880;2023-08-21T06:54:17;29.00;47.50
12060;DHT22;6091;51.432;6.880;2023-08-21T06:56:44;29.00;47.50
12060;DHT22;6091;51.432;6.880;2023-08-21T06:59:11;29.10;47.30
12060;DHT22;6091;51.432;6.880;2023-08-21T07:01:38;29.10;47.30
12060;DHT22;6091;51.432;6.880;2023-08-21T07:04:05;29.10;47.40
12060;DHT22;6091;51.432;6.880;2023-08-21T07:06:33;29.20;47.50
12060;DHT22;6091;51.432;6.880;2023-08-21T07:09:00;29.20;47.50
12060;DHT22;6091;51.432;6.880;2023-08-21T07:11:27;29.20;47.40
12060;DHT22;6091;51.432;6.880;2023-08-21T07:13:55;29.30;47.50
12060;DHT22;6091;51.432;6.880;2023-08-21T07:16:24;29.30;47.60
12060;DHT22;6091;51.432;6.880;2023-08-21T07:18:54;29.30;47.60
12060;DHT22;6091;51.432;6.880;2023-08-21T07:21:21;29.40;47.60
12060;DHT22;6091;51.432;6.880;2023-08-21T07:24:00;29.40;47.30
12060;DHT22;6091;51.432;6.880;2023-08-21T07:26:27;29.40;47.40
12060;DHT22;6091;51.432;6.880;2023-08-21T07:28:56;29.50;47.20
12060;DHT22;6091;51.432;6.880;2023-08-21T07:31:23;29.60;47.40
12060;DHT22;6091;51.432;6.880;2023-08-21T07:33:50;29.60;47.40
12060;DHT22;6091;51.432;6.880;2023-08-21T07:36:18;29.60;47.30
12060;DHT22;6091;51.432;6.880;2023-08-21T07:38:46;29.70;47.30
12060;DHT22;6091;51.432;6.880;2023-08-21T07:41:13;29.70;47.40
12060;DHT22;6091;51.432;6.880;2023-08-21T07:43:41;29.70;47.40
12060;DHT22;6091;51.432;6.880;2023-08-21T07:46:12;29.80;47.30
12060;DHT22;6091;51.432;6.880;2023-08-21T07:48:45;29.80;47.00
12060;DHT22;6091;51.432;6.880;2023-08-21T07:51:14;29.90;47.10
12060;DHT22;6091;51.432;6.880;2023-08-21T07:53:41;29.90;46.80
12060;DHT22;6091;51.432;6.880;2023-08-21T07:56:08;29.90;47.00
12060;DHT22;6091;51.432;6.880;2023-08-21T07:58:35;29.90;46.80
12060;DHT22;6091;51.432;6.880;2023-08-21T08:01:02;29.90;46.90
12060;DHT22;6091;51.432;6.880;2023-08-21T08:03:31;30.00;46.70
12060;DHT22;6091;51.432;6.880;2023-08-21T08:05:59;30.00;46.80
12060;DHT22;6091;51.432;6.880;2023-08-21T08:08:26;30.00;46.80
12060;DHT22;6091;51.432;6.880;2023-08-21T08:10:53;30.00;46.50
12060;DHT22;6091;51.432;6.880;2023-08-21T08:13:20;30.00;46.90
12060;DHT22;6091;51.432;6.880;2023-08-21T08:15:47;30.10;46.10
12060;DHT22;6091;51.432;6.880;2023-08-21T08:18:15;30.10;45.70
12060;DHT22;6091;51.432;6.880;2023-08-21T08:20:42;30.10;45.40
12060;DHT22;6091;51.432;6.880;2023-08-21T08:23:09;30.10;45.40
12060;DHT22;6091;51.432;6.880;2023-08-21T08:25:37;30.10;45.40
12060;DHT22;6091;51.432;6.880;2023-08-21T08:28:04;30.10;45.30
12060;DHT22;6091;51.432;6.880;2023-08-21T08:30:33;30.00;45.20
12060;DHT22;6091;51.432;6.880;2023-08-21T08:33:00;30.10;45.10
12060;DHT22;6091;51.432;6.880;2023-08-21T08:35:27;30.00;45.10
12060;DHT22;6091;51.432;6.880;2023-08-21T08:37:54;30.10;45.00
12060;DHT22;6091;51.432;6.880;2023-08-21T08:40:22;30.10;45.10
12060;DHT22;6091;51.432;6.880;2023-08-21T08:42:49;30.10;45.10
12060;DHT22;6091;51.432;6.880;2023-08-21T08:45:28;30.10;45.20
12060;DHT22;6091;51.432;6.880;2023-08-21T08:48:04;30.10;44.90
12060;DHT22;6091;51.432;6.880;2023-08-21T08:50:32;30.10;45.00
12060;DHT22;6091;51.432;6.880;2023-08-21T08:53:01;30.10;45.10
12060;DHT22;6091;51.432;6.880;2023-08-21T08:55:42;30.20;45.00
12060;DHT22;6091;51.432;6.880;2023-08-21T08:58:11;30.20;45.00
12060;DHT22;6091;51.432;6.880;2023-08-21T09:00:38;30.20;44.90
12060;DHT22;6091;51.432;6.880;2023-08-21T09:03:06;30.20;44.80
12060;DHT22;6091;51.432;6.880;2023-08-21T09:05:34;30.20;44.80
12060;DHT22;6091;51.432;6.880;2023-08-21T09:08:11;30.20;45.60
12060;DHT22;6091;51.432;6.880;2023-08-21T09:10:41;30.20;44.30
12060;DHT22;6091;51.432;6.880;2023-08-21T09:13:17;30.20;44.50
12060;DHT22;6091;51.432;6.880;2023-08-21T09:15:50;30.30;44.10
12060;DHT22;6091;51.432;6.880;2023-08-21T09:18:20;30.20;44.40
12060;DHT22;6091;51.432;6.880;2023-08-21T09:20:48;30.30;44.50
12060;DHT22;6091;51.432;6.880;2023-08-21T09:23:17;30.30;44.50
12060;DHT22;6091;51.432;6.880;2023-08-21T09:25:46;30.30;44.40
12060;DHT22;6091;51.432;6.880;2023-08-21T09:28:18;30.30;44.30
12060;DHT22;6091;51.432;6.880;2023-08-21T09:30:51;30.30;44.00
12060;DHT22;6091;51.432;6.880;2023-08-21T09:33:23;30.30;44.20
12060;DHT22;6091;51.432;6.880;2023-08-21T09:35:54;30.40;44.10
12060;DHT22;6091;51.432;6.880;2023-08-21T09:38:22;30.40;44.10
12060;DHT22;6091;51.432;6.880;2023-08-21T09:40:51;30.40;44.00
12060;DHT22;6091;51.432;6.880;2023-08-21T09:43:21;30.50;44.20
12060;DHT22;6091;51.432;6.880;2023-08-21T09:45:50;30.40;44.00
12060;DHT22;6091;51.432;6.880;2023-08-21T09:48:22;30.50;44.00
12060;DHT22;6091;51.432;6.880;2023-08-21T09:50:59;31.00;44.40
12060;DHT22;6091;51.432;6.880;2023-08-21T09:53:30;30.50;43.90
12060;DHT22;6091;51.432;6.880;2023-08-21T09:56:00;30.50;44.00
12060;DHT22;6091;51.432;6.880;2023-08-21T09:58:30;30.60;44.00
12060;DHT22;6091;51.432;6.880;2023-08-21T10:00:59;30.50;44.10
12060;DHT22;6091;51.432;6.880;2023-08-21T10:03:27;30.60;43.90
12060;DHT22;6091;51.432;6.880;2023-08-21T10:05:58;30.60;44.10
12060;DHT22;6091;51.432;6.880;2023-08-21T10:08:26;30.60;44.10
12060;DHT22;6091;51.432;6.880;2023-08-21T10:10:55;30.60;44.10
12060;DHT22;6091;51.432;6.880;2023-08-21T10:13:23;30.70;43.90
12060;DHT22;6091;51.432;6.880;2023-08-21T10:15:50;30.70;43.90
12060;DHT22;6091;51.432;6.880;2023-08-21T10:20:48;30.80;44.00
12060;DHT22;6091;51.432;6.880;2023-08-21T10:23:29;30.80;43.90
12060;DHT22;6091;51.432;6.880;2023-08-21T10:26:03;30.80;43.60
12060;DHT22;6091;51.432;6.880;2023-08-21T10:28:52;30.90;43.60
12060;DHT22;6091;51.432;6.880;2023-08-21T10:34:07;31.00;43.50
12060;DHT22;6091;51.432;6.880;2023-08-21T10:39:23;31.00;43.40
12060;DHT22;6091;51.432;6.880;2023-08-21T10:49:59;31.10;43.80
12060;DHT22;6091;51.432;6.880;2023-08-21T10:52:37;31.10;44.00
12060;DHT22;6091;51.432;6.880;2023-08-21T10:55:10;31.20;43.90
12060;DHT22;6091;51.432;6.880;2023-08-21T10:57:39;31.20;43.80
12060;DHT22;6091;51.432;6.880;2023-08-21T11:00:12;31.30;43.80
12060;DHT22;6091;51.432;6.880;2023-08-21T11:02:45;31.30;43.60
12060;DHT22;6091;51.432;6.880;2023-08-21T11:05:15;31.40;43.70
12060;DHT22;6091;51.432;6.880;2023-08-21T11:07:47;31.50;43.70
12060;DHT22;6091;51.432;6.880;2023-08-21T11:10:21;31.50;43.60
12060;DHT22;6091;51.432;6.880;2023-08-21T11:12:56;31.50;43.30
12060;DHT22;6091;51.432;6.880;2023-08-21T11:15:25;31.60;43.70
12060;DHT22;6091;51.432;6.880;2023-08-21T11:17:56;31.70;43.60
12060;DHT22;6091;51.432;6.880;2023-08-21T11:20:35;31.70;43.50
12060;DHT22;6091;51.432;6.880;2023-08-21T11:23:06;31.80;43.40
12060;DHT22;6091;51.432;6.880;2023-08-21T11:25:35;31.80;43.30
12060;DHT22;6091;51.432;6.880;2023-08-21T11:28:05;31.90;43.40
12060;DHT22;6091;51.432;6.880;2023-08-21T11:30:33;32.00;43.40
12060;DHT22;6091;51.432;6.880;2023-08-21T11:33:12;32.10;43.30
12060;DHT22;6091;51.432;6.880;2023-08-21T11:35:41;32.20;43.10
12060;DHT22;6091;51.432;6.880;2023-08-21T11:38:19;32.20;43.20
12060;DHT22;6091;51.432;6.880;2023-08-21T11:41:14;32.40;42.80
12060;DHT22;6091;51.432;6.880;2023-08-21T11:43:42;32.40;42.70
12060;DHT22;6091;51.432;6.880;2023-08-21T11:46:10;32.40;42.90
12060;DHT22;6091;51.432;6.880;2023-08-21T11:48:38;32.50;42.90
12060;DHT22;6091;51.432;6.880;2023-08-21T11:51:08;32.60;42.90
12060;DHT22;6091;51.432;6.880;2023-08-21T11:53:37;32.60;42.80
12060;DHT22;6091;51.432;6.880;2023-08-21T11:56:28;32.70;43.40
12060;DHT22;6091;51.432;6.880;2023-08-21T11:58:55;32.90;42.50
12060;DHT22;6091;51.432;6.880;2023-08-21T12:01:22;32.80;42.50
12060;DHT22;6091;51.432;6.880;2023-08-21T12:03:50;32.90;42.40
12060;DHT22;6091;51.432;6.880;2023-08-21T12:06:22;33.00;42.50
12060;DHT22;6091;51.432;6.880;2023-08-21T12:08:49;33.00;42.50
12060;DHT22;6091;51.432;6.880;2023-08-21T12:11:16;33.10;42.50
12060;DHT22;6091;51.432;6.880;2023-08-21T12:13:44;33.20;42.50
12060;DHT22;6091;51.432;6.880;2023-08-21T12:16:11;33.30;42.50
12060;DHT22;6091;51.432;6.880;2023-08-21T12:18:38;33.40;42.50
12060;DHT22;6091;51.432;6.880;2023-08-21T12:21:06;33.60;42.40
12060;DHT22;6091;51.432;6.880;2023-08-21T12:23:34;33.70;42.30
12060;DHT22;6091;51.432;6.880;2023-08-21T12:26:02;33.80;42.20
12060;DHT22;6091;51.432;6.880;2023-08-21T12:28:29;33.90;42.00
12060;DHT22;6091;51.432;6.880;2023-08-21T12:30:57;33.90;41.70
12060;DHT22;6091;51.432;6.880;2023-08-21T12:33:25;34.00;41.60
12060;DHT22;6091;51.432;6.880;2023-08-21T12:35:53;34.10;41.60
12060;DHT22;6091;51.432;6.880;2023-08-21T12:38:20;34.10;41.50
12060;DHT22;6091;51.432;6.880;2023-08-21T12:40:48;34.20;41.50
12060;DHT22;6091;51.432;6.880;2023-08-21T12:43:15;34.30;41.80
12060;DHT22;6091;51.432;6.880;2023-08-21T12:45:42;34.40;41.30
12060;DHT22;6091;51.432;6.880;2023-08-21T12:48:10;34.50;41.20
12060;DHT22;6091;51.432;6.880;2023-08-21T12:50:38;34.50;41.00
12060;DHT22;6091;51.432;6.880;2023-08-21T12:53:05;34.50;40.80
12060;DHT22;6091;51.432;6.880;2023-08-21T12:55:33;34.60;40.70
12060;DHT22;6091;51.432;6.880;2023-08-21T12:58:00;34.70;40.80
12060;DHT22;6091;51.432;6.880;2023-08-21T13:00:27;34.80;40.80
12060;DHT22;6091;51.432;6.880;2023-08-21T13:02:54;34.90;40.70
12060;DHT22;6091;51.432;6.880;2023-08-21T13:05:22;35.00;40.60
12060;DHT22;6091;51.432;6.880;2023-08-21T13:07:50;35.10;40.40
12060;DHT22;6091;51.432;6.880;2023-08-21T13:10:18;35.10;40.20
12060;DHT22;6091;51.432;6.880;2023-08-21T13:12:45;35.30;40.20
12060;DHT22;6091;51.432;6.880;2023-08-21T13:15:13;35.30;40.00
12060;DHT22;6091;51.432;6.880;2023-08-21T13:17:40;35.30;39.70
12060;DHT22;6091;51.432;6.880;2023-08-21T13:20:10;35.20;39.50
12060;DHT22;6091;51.432;6.880;2023-08-21T13:25:24;35.10;38.90
12060;DHT22;6091;51.432;6.880;2023-08-21T13:27:52;34.90;38.90
12060;DHT22;6091;51.432;6.880;2023-08-21T13:30:21;34.80;39.70
12060;DHT22;6091;51.432;6.880;2023-08-21T13:32:50;34.60;38.90
12060;DHT22;6091;51.432;6.880;2023-08-21T13:35:17;34.50;39.00
12060;DHT22;6091;51.432;6.880;2023-08-21T13:37:46;34.30;38.90
12060;DHT22;6091;51.432;6.880;2023-08-21T13:40:14;34.20;39.00
12060;DHT22;6091;51.432;6.880;2023-08-21T13:42:44;34.10;39.00
12060;DHT22;6091;51.432;6.880;2023-08-21T13:45:20;34.00;39.00
12060;DHT22;6091;51.432;6.880;2023-08-21T13:47:48;33.80;39.00
12060;DHT22;6091;51.432;6.880;2023-08-21T13:50:17;33.70;39.10
12060;DHT22;6091;51.432;6.880;2023-08-21T13:52:47;33.60;39.20
12060;DHT22;6091;51.432;6.880;2023-08-21T13:55:15;33.50;39.20
12060;DHT22;6091;51.432;6.880;2023-08-21T13:57:44;33.40;39.30
12060;DHT22;6091;51.432;6.880;2023-08-21T14:00:12;33.30;39.30
12060;DHT22;6091;51.432;6.880;2023-08-21T14:02:41;33.20;39.40
12060;DHT22;6091;51.432;6.880;2023-08-21T14:05:09;33.10;39.40
12060;DHT22;6091;51.432;6.880;2023-08-21T14:07:39;33.10;39.60
12060;DHT22;6091;51.432;6.880;2023-08-21T14:10:08;33.00;39.50
12060;DHT22;6091;51.432;6.880;2023-08-21T14:12:36;32.90;39.40
12060;DHT22;6091;51.432;6.880;2023-08-21T14:15:08;32.90;39.50
12060;DHT22;6091;51.432;6.880;2023-08-21T14:17:38;32.80;39.50
12060;DHT22;6091;51.432;6.880;2023-08-21T14:20:07;32.80;39.60
12060;DHT22;6091;51.432;6.880;2023-08-21T14:22:35;32.80;39.70
12060;DHT22;6091;51.432;6.880;2023-08-21T14:25:03;32.70;39.60
12060;DHT22;6091;51.432;6.880;2023-08-21T14:27:34;32.60;39.60
12060;DHT22;6091;51.432;6.880;2023-08-21T14:30:03;32.50;39.60
12060;DHT22;6091;51.432;6.880;2023-08-21T14:32:31;32.50;39.70
12060;DHT22;6091;51.432;6.880;2023-08-21T14:35:02;32.50;39.80
12060;DHT22;6091;51.432;6.880;2023-08-21T14:37:30;32.10;39.60
12060;DHT22;6091;51.432;6.880;2023-08-21T14:39:57;32.40;39.90
12060;DHT22;6091;51.432;6.880;2023-08-21T14:42:24;32.40;39.90
12060;DHT22;6091;51.432;6.880;2023-08-21T14:44:52;32.40;40.00
12060;DHT22;6091;51.432;6.880;2023-08-21T14:47:19;32.30;40.00
12060;DHT22;6091;51.432;6.880;2023-08-21T14:49:46;32.30;40.10
12060;DHT22;6091;51.432;6.880;2023-08-21T14:52:13;32.30;40.10
12060;DHT22;6091;51.432;6.880;2023-08-21T14:54:41;32.20;40.10
12060;DHT22;6091;51.432;6.880;2023-08-21T14:57:08;32.20;40.10
12060;DHT22;6091;51.432;6.880;2023-08-21T14:59:35;32.20;40.10
12060;DHT22;6091;51.432;6.880;2023-08-21T15:02:02;32.20;40.20
12060;DHT22;6091;51.432;6.880;2023-08-21T15:04:30;32.20;40.20
12060;DHT22;6091;51.432;6.880;2023-08-21T15:06:58;32.20;40.20
12060;DHT22;6091;51.432;6.880;2023-08-21T15:09:25;32.20;40.30
12060;DHT22;6091;51.432;6.880;2023-08-21T15:11:52;32.20;40.40
12060;DHT22;6091;51.432;6.880;2023-08-21T15:14:19;32.20;40.90
12060;DHT22;6091;51.432;6.880;2023-08-21T15:16:47;32.10;40.30
12060;DHT22;6091;51.432;6.880;2023-08-21T15:19:15;32.10;40.40
12060;DHT22;6091;51.432;6.880;2023-08-21T15:21:42;32.10;40.50
12060;DHT22;6091;51.432;6.880;2023-08-21T15:24:12;32.10;40.50
12060;DHT22;6091;51.432;6.880;2023-08-21T15:26:40;32.10;40.50
12060;DHT22;6091;51.432;6.880;2023-08-21T15:29:07;32.00;40.50
12060;DHT22;6091;51.432;6.880;2023-08-21T15:31:35;32.00;40.40
12060;DHT22;6091;51.432;6.880;2023-08-21T15:34:02;32.00;40.60
12060;DHT22;6091;51.432;6.880;2023-08-21T15:36:32;32.00;40.60
12060;DHT22;6091;51.432;6.880;2023-08-21T15:39:00;31.90;40.50
12060;DHT22;6091;51.432;6.880;2023-08-21T15:41:28;31.90;40.60
12060;DHT22;6091;51.432;6.880;2023-08-21T15:43:55;31.90;40.60
12060;DHT22;6091;51.432;6.880;2023-08-21T15:46:23;31.90;40.60
12060;DHT22;6091;51.432;6.880;2023-08-21T15:48:50;31.90;41.30
12060;DHT22;6091;51.432;6.880;2023-08-21T15:51:18;31.80;40.60
12060;DHT22;6091;51.432;6.880;2023-08-21T15:53:45;31.90;40.80
12060;DHT22;6091;51.432;6.880;2023-08-21T15:56:13;31.90;41.40
12060;DHT22;6091;51.432;6.880;2023-08-21T15:58:41;31.80;40.80
12060;DHT22;6091;51.432;6.880;2023-08-21T16:01:12;31.80;40.80
12060;DHT22;6091;51.432;6.880;2023-08-21T16:03:39;31.90;41.00
12060;DHT22;6091;51.432;6.880;2023-08-21T16:06:07;31.90;40.90
12060;DHT22;6091;51.432;6.880;2023-08-21T16:08:35;31.90;41.00
12060;DHT22;6091;51.432;6.880;2023-08-21T16:11:02;31.90;40.90
12060;DHT22;6091;51.432;6.880;2023-08-21T16:13:30;31.90;40.80
12060;DHT22;6091;51.432;6.880;2023-08-21T16:15:58;31.90;40.70